sensor_id;sensor_type;location;lat;lon;timestamp;temperature;humidity
20422;DHT22;10370;53.102;18.034;2023-02-28T00:01:04;-4.50;99.90
20422;DHT22;10370;53.102;18.034;2023-02-28T00:06:45;-4.50;99.90
20422;DHT22;10370;53.102;18.034;2023-02-28T00:12:22;-4.70;99.90
20422;DHT22;10370;53.102;18.034;2023-02-28T00:17:48;-4.90;99.90
20422;DHT22;10370;53.102;18.034;2023-02-28T00:23:11;-4.80;99.90
20422;DHT22;10370;53.102;18.034;2023-02-28T00:28:45;-4.80;99.90
20422;DHT22;10370;53.102;18.034;2023-02-28T00:34:10;-4.70;99.90
20422;DHT22;10370;53.102;18.034;2023-02-28T00:39:42;-4.80;99.90
20422;DHT22;10370;53.102;18.034;2023-02-28T00:45:08;-5.10;99.90
20422;DHT22;10370;53.102;18.034;2023-02-28T00:50:33;-5.00;99.90
20422;DHT22;10370;53.102;18.034;2023-02-28T00:56:16;-5.00;99.90
20422;DHT22;10370;53.102;18.034;2023-02-28T01:01:38;-5.10;99.90
20422;DHT22;10370;53.102;18.034;2023-02-28T01:07:13;-5.10;99.90
20422;DHT22;10370;53.102;18.034;2023-02-28T01:12:44;-5.20;99.90
20422;DHT22;10370;53.102;18.034;2023-02-28T01:18:07;-5.40;99.90
20422;DHT22;10370;53.102;18.034;2023-02-28T01:23:32;-5.30;99.90
20422;DHT22;10370;53.102;18.034;2023-02-28T01:29:13;-5.30;99.90
20422;DHT22;10370;53.102;18.034;2023-02-28T01:34:38;-5.40;99.90
20422;DHT22;10370;53.102;18.034;2023-02-28T01:40:04;-5.40;99.90
20422;DHT22;10370;53.102;18.034;2023-02-28T01:45:31;-5.40;99.90
20422;DHT22;10370;53.102;18.034;2023-02-28T01:51:02;-5.40;99.90
20422;DHT22;10370;53.102;18.034;2023-02-28T01:56:55;-5.50;99.90
20422;DHT22;10370;53.102;18.034;2023-02-28T02:07:55;-5.50;99.90
20422;DHT22;10370;53.102;18.034;2023-02-28T02:37:29;-5.80;99.90
20422;DHT22;10370;53.102;18.034;2023-02-28T02:43:08;-5.90;99.90
20422;DHT22;10370;53.102;18.034;2023-02-28T02:48:36;-5.90;99.90
20422;DHT22;10370;53.102;18.034;2023-02-28T02:54:08;-6.00;99.90
20422;DHT22;10370;53.102;18.034;2023-02-28T02:59:36;-5.90;99.90
20422;DHT22;10370;53.102;18.034;2023-02-28T03:05:17;-5.90;99.90
20422;DHT22;10370;53.102;18.034;2023-02-28T03:10:45;-6.00;99.90
20422;DHT22;10370;53.102;18.034;2023-02-28T03:29:00;-6.10;99.90
20422;DHT22;10370;53.102;18.034;2023-02-28T03:35:07;-6.20;99.90
20422;DHT22;10370;53.102;18.034;2023-02-28T03:40:35;-6.20;99.90
20422;DHT22;10370;53.102;18.034;2023-02-28T03:46:08;-6.20;99.90
20422;DHT22;10370;53.102;18.034;2023-02-28T03:52:07;-6.20;99.90
20422;DHT22;10370;53.102;18.034;2023-02-28T04:04:15;-6.40;99.90
20422;DHT22;10370;53.102;18.034;2023-02-28T04:09:41;-6.40;99.90
20422;DHT22;10370;53.102;18.034;2023-02-28T04:15:10;-6.40;99.90
20422;DHT22;10370;53.102;18.034;2023-02-28T04:20:36;-6.40;99.90
20422;DHT22;10370;53.102;18.034;2023-02-28T04:26:01;-6.40;99.90
20422;DHT22;10370;53.102;18.034;2023-02-28T04:31:25;-6.50;99.90
20422;DHT22;10370;53.102;18.034;2023-02-28T04:36:48;-6.50;99.90
20422;DHT22;10370;53.102;18.034;2023-02-28T04:42:33;-6.60;99.90
20422;DHT22;10370;53.102;18.034;2023-02-28T04:48:07;-6.60;99.90
20422;DHT22;10370;53.102;18.034;2023-02-28T04:53:30;-6.60;99.90
20422;DHT22;10370;53.102;18.034;2023-02-28T04:59:22;-6.60;99.90
20422;DHT22;10370;53.102;18.034;2023-02-28T05:04:43;-6.60;99.90
20422;DHT22;10370;53.102;18.034;2023-02-28T05:10:08;-6.70;99.90
20422;DHT22;10370;53.102;18.034;2023-02-28T05:15:34;-6.70;99.90
20422;DHT22;10370;53.102;18.034;2023-02-28T05:20:59;-6.70;99.90
20422;DHT22;10370;53.102;18.034;2023-02-28T05:26:28;-6.80;99.90
20422;DHT22;10370;53.102;18.034;2023-02-28T05:32:05;-6.90;99.90
20422;DHT22;10370;53.102;18.034;2023-02-28T05:37:37;-6.90;99.90
20422;DHT22;10370;53.102;18.034;2023-02-28T05:43:05;-6.90;99.90
20422;DHT22;10370;53.102;18.034;2023-02-28T05:48:35;-7.00;99.90
20422;DHT22;10370;53.102;18.034;2023-02-28T05:54:21;-6.90;99.90
20422;DHT22;10370;53.102;18.034;2023-02-28T05:59:53;-6.80;99.90
20422;DHT22;10370;53.102;18.034;2023-02-28T06:05:34;-6.80;99.90
20422;DHT22;10370;53.102;18.034;2023-02-28T06:11:08;-6.70;99.90
20422;DHT22;10370;53.102;18.034;2023-02-28T06:16:34;-6.50;99.90
20422;DHT22;10370;53.102;18.034;2023-02-28T06:21:57;-6.50;99.90
20422;DHT22;10370;53.102;18.034;2023-02-28T06:27:23;-6.30;99.90
20422;DHT22;10370;53.102;18.034;2023-02-28T06:32:49;-6.20;99.90
20422;DHT22;10370;53.102;18.034;2023-02-28T06:38:17;-6.00;99.90
20422;DHT22;10370;53.102;18.034;2023-02-28T06:43:47;-5.80;99.90
20422;DHT22;10370;53.102;18.034;2023-02-28T06:49:15;-5.70;99.90
20422;DHT22;10370;53.102;18.034;2023-02-28T06:54:43;-5.50;99.90
20422;DHT22;10370;53.102;18.034;2023-02-28T07:00:26;-5.30;99.90
20422;DHT22;10370;53.102;18.034;2023-02-28T07:05:49;-5.10;99.90
20422;DHT22;10370;53.102;18.034;2023-02-28T07:11:12;-5.00;99.90
20422;DHT22;10370;53.102;18.034;2023-02-28T07:16:43;-4.80;99.90
20422;DHT22;10370;53.102;18.034;2023-02-28T07:22:15;-4.60;99.90
20422;DHT22;10370;53.102;18.034;2023-02-28T07:27:43;-4.40;99.90
20422;DHT22;10370;53.102;18.034;2023-02-28T07:33:30;-4.20;99.90
20422;DHT22;10370;53.102;18.034;2023-02-28T07:39:00;-4.00;99.90
20422;DHT22;10370;53.102;18.034;2023-02-28T07:44:33;-3.80;99.90
20422;DHT22;10370;53.102;18.034;2023-02-28T07:49:57;-3.60;99.90
20422;DHT22;10370;53.102;18.034;2023-02-28T07:55:39;-3.30;99.90
20422;DHT22;10370;53.102;18.034;2023-02-28T08:01:11;-3.10;99.90
20422;DHT22;10370;53.102;18.034;2023-02-28T08:06:37;-2.80;99.90
20422;DHT22;10370;53.102;18.034;2023-02-28T08:12:09;-2.60;99.90
20422;DHT22;10370;53.102;18.034;2023-02-28T08:17:30;-2.30;99.90
20422;DHT22;10370;53.102;18.034;2023-02-28T08:22:56;-2.00;99.90
20422;DHT22;10370;53.102;18.034;2023-02-28T08:28:22;-1.80;99.90
20422;DHT22;10370;53.102;18.034;2023-02-28T08:33:47;-1.50;99.90
20422;DHT22;10370;53.102;18.034;2023-02-28T08:39:13;-1.30;99.90
20422;DHT22;10370;53.102;18.034;2023-02-28T08:44:37;-1.00;99.90
20422;DHT22;10370;53.102;18.034;2023-02-28T08:49:58;-0.90;99.90
20422;DHT22;10370;53.102;18.034;2023-02-28T08:55:22;-0.70;99.90
20422;DHT22;10370;53.102;18.034;2023-02-28T09:00:47;-0.40;99.90
20422;DHT22;10370;53.102;18.034;2023-02-28T09:06:10;-0.40;99.90
20422;DHT22;10370;53.102;18.034;2023-02-28T09:11:36;-0.20;99.90
20422;DHT22;10370;53.102;18.034;2023-02-28T09:17:01;-0.10;99.90
20422;DHT22;10370;53.102;18.034;2023-02-28T09:22:27;0.10;99.90
20422;DHT22;10370;53.102;18.034;2023-02-28T09:27:51;0.00;99.90
20422;DHT22;10370;53.102;18.034;2023-02-28T09:33:15;0.30;99.90
20422;DHT22;10370;53.102;18.034;2023-02-28T09:38:41;0.50;99.90
20422;DHT22;10370;53.102;18.034;2023-02-28T09:44:09;0.40;99.90
20422;DHT22;10370;53.102;18.034;2023-02-28T09:49:41;0.60;99.90
20422;DHT22;10370;53.102;18.034;2023-02-28T09:55:39;0.80;99.90
20422;DHT22;10370;53.102;18.034;2023-02-28T10:39:38;1.70;99.90
20422;DHT22;10370;53.102;18.034;2023-02-28T10:45:13;1.80;99.90
20422;DHT22;10370;53.102;18.034;2023-02-28T10:50:50;1.70;99.90
20422;DHT22;10370;53.102;18.034;2023-02-28T10:56:21;1.90;99.90
20422;DHT22;10370;53.102;18.034;2023-02-28T11:01:46;1.90;99.90
20422;DHT22;10370;53.102;18.034;2023-02-28T11:07:25;2.00;99.90
20422;DHT22;10370;53.102;18.034;2023-02-28T11:13:01;2.10;99.90
20422;DHT22;10370;53.102;18.034;2023-02-28T11:24:40;2.20;99.90
20422;DHT22;10370;53.102;18.034;2023-02-28T11:35:53;2.30;99.90
20422;DHT22;10370;53.102;18.034;2023-02-28T12:04:26;2.70;99.90
20422;DHT22;10370;53.102;18.034;2023-02-28T12:15:31;2.90;99.90
20422;DHT22;10370;53.102;18.034;2023-02-28T12:21:18;3.00;99.90
20422;DHT22;10370;53.102;18.034;2023-02-28T12:26:47;3.00;99.90
20422;DHT22;10370;53.102;18.034;2023-02-28T12:32:46;3.00;99.90
20422;DHT22;10370;53.102;18.034;2023-02-28T12:38:21;3.00;99.90
20422;DHT22;10370;53.102;18.034;2023-02-28T12:43:49;3.10;99.90
20422;DHT22;10370;53.102;18.034;2023-02-28T12:49:25;3.10;99.90
20422;DHT22;10370;53.102;18.034;2023-02-28T12:55:06;3.10;99.90
20422;DHT22;10370;53.102;18.034;2023-02-28T13:00:36;3.10;99.90
20422;DHT22;10370;53.102;18.034;2023-02-28T13:11:58;3.30;99.90
20422;DHT22;10370;53.102;18.034;2023-02-28T13:17:21;3.30;99.90
20422;DHT22;10370;53.102;18.034;2023-02-28T13:22:51;3.30;99.90
20422;DHT22;10370;53.102;18.034;2023-02-28T13:34:15;3.30;99.90
20422;DHT22;10370;53.102;18.034;2023-02-28T13:50:34;3.30;99.90
20422;DHT22;10370;53.102;18.034;2023-02-28T14:01:55;3.50;99.90
20422;DHT22;10370;53.102;18.034;2023-02-28T14:07:27;3.50;99.90
20422;DHT22;10370;53.102;18.034;2023-02-28T14:12:58;3.50;99.90
20422;DHT22;10370;53.102;18.034;2023-02-28T14:24:16;3.40;99.90
20422;DHT22;10370;53.102;18.034;2023-02-28T14:41:12;3.50;99.90
20422;DHT22;10370;53.102;18.034;2023-02-28T14:46:40;3.50;99.90
20422;DHT22;10370;53.102;18.034;2023-02-28T14:57:56;3.50;99.90
20422;DHT22;10370;53.102;18.034;2023-02-28T15:03:40;3.50;99.90
20422;DHT22;10370;53.102;18.034;2023-02-28T15:09:18;3.50;99.90
20422;DHT22;10370;53.102;18.034;2023-02-28T15:14:42;3.40;99.90
20422;DHT22;10370;53.102;18.034;2023-02-28T15:20:10;3.30;99.90
20422;DHT22;10370;53.102;18.034;2023-02-28T15:25:36;3.30;99.90
20422;DHT22;10370;53.102;18.034;2023-02-28T15:31:16;3.20;99.90
20422;DHT22;10370;53.102;18.034;2023-02-28T15:36:43;3.30;99.90
20422;DHT22;10370;53.102;18.034;2023-02-28T15:42:18;3.10;99.90
20422;DHT22;10370;53.102;18.034;2023-02-28T15:47:51;3.00;99.90
20422;DHT22;10370;53.102;18.034;2023-02-28T15:53:58;2.90;99.90
20422;DHT22;10370;53.102;18.034;2023-02-28T15:59:29;2.80;99.90
20422;DHT22;10370;53.102;18.034;2023-02-28T16:10:32;2.50;99.90
20422;DHT22;10370;53.102;18.034;2023-02-28T16:15:56;2.30;99.90
20422;DHT22;10370;53.102;18.034;2023-02-28T16:21:20;2.10;99.90
20422;DHT22;10370;53.102;18.034;2023-02-28T16:26:45;1.90;99.90
20422;DHT22;10370;53.102;18.034;2023-02-28T16:32:13;1.60;99.90
20422;DHT22;10370;53.102;18.034;2023-02-28T16:37:40;1.40;99.90
20422;DHT22;10370;53.102;18.034;2023-02-28T16:43:21;1.10;99.90
20422;DHT22;10370;53.102;18.034;2023-02-28T16:48:49;0.90;99.90
20422;DHT22;10370;53.102;18.034;2023-02-28T16:54:16;0.70;99.90
20422;DHT22;10370;53.102;18.034;2023-02-28T16:59:41;0.40;99.90
20422;DHT22;10370;53.102;18.034;2023-02-28T17:05:10;0.30;99.90
20422;DHT22;10370;53.102;18.034;2023-02-28T17:10:36;0.10;99.90
20422;DHT22;10370;53.102;18.034;2023-02-28T17:16:04;-0.10;99.90
20422;DHT22;10370;53.102;18.034;2023-02-28T17:21:34;-0.40;99.90
20422;DHT22;10370;53.102;18.034;2023-02-28T17:27:11;-0.50;99.90
20422;DHT22;10370;53.102;18.034;2023-02-28T17:32:36;-0.60;99.90
20422;DHT22;10370;53.102;18.034;2023-02-28T17:38:01;-0.60;99.90
20422;DHT22;10370;53.102;18.034;2023-02-28T17:43:26;-0.80;99.90
20422;DHT22;10370;53.102;18.034;2023-02-28T17:48:52;-0.90;99.90
20422;DHT22;10370;53.102;18.034;2023-02-28T17:54:16;-1.10;99.90
20422;DHT22;10370;53.102;18.034;2023-02-28T17:59:40;-1.10;99.90
20422;DHT22;10370;53.102;18.034;2023-02-28T18:05:07;-1.20;99.90
20422;DHT22;10370;53.102;18.034;2023-02-28T18:10:37;-1.30;99.90
20422;DHT22;10370;53.102;18.034;2023-02-28T18:16:05;-1.30;99.90
20422;DHT22;10370;53.102;18.034;2023-02-28T18:21:52;-1.40;99.90
20422;DHT22;10370;53.102;18.034;2023-02-28T18:27:39;-1.60;99.90
20422;DHT22;10370;53.102;18.034;2023-02-28T18:33:03;-1.60;99.90
20422;DHT22;10370;53.102;18.034;2023-02-28T18:38:29;-1.70;99.90
20422;DHT22;10370;53.102;18.034;2023-02-28T18:44:03;-1.70;99.90
20422;DHT22;10370;53.102;18.034;2023-02-28T18:49:38;-1.70;99.90
20422;DHT22;10370;53.102;18.034;2023-02-28T18:55:04;-1.80;99.90
20422;DHT22;10370;53.102;18.034;2023-02-28T19:00:31;-1.80;99.90
20422;DHT22;10370;53.102;18.034;2023-02-28T19:06:01;-1.80;99.90
20422;DHT22;10370;53.102;18.034;2023-02-28T19:11:23;-1.80;99.90
20422;DHT22;10370;53.102;18.034;2023-02-28T19:16:47;-1.90;99.90
20422;DHT22;10370;53.102;18.034;2023-02-28T19:22:14;-2.00;99.90
20422;DHT22;10370;53.102;18.034;2023-02-28T19:27:35;-2.10;99.90
20422;DHT22;10370;53.102;18.034;2023-02-28T19:32:59;-2.20;99.90
20422;DHT22;10370;53.102;18.034;2023-02-28T19:38:23;-2.20;99.90
20422;DHT22;10370;53.102;18.034;2023-02-28T19:43:48;-2.20;99.90
20422;DHT22;10370;53.102;18.034;2023-02-28T19:49:30;-2.30;99.90
20422;DHT22;10370;53.102;18.034;2023-02-28T19:54:56;-2.30;99.90
20422;DHT22;10370;53.102;18.034;2023-02-28T20:00:36;-2.40;99.90
20422;DHT22;10370;53.102;18.034;2023-02-28T20:06:02;-2.50;99.90
20422;DHT22;10370;53.102;18.034;2023-02-28T20:11:26;-2.50;99.90
20422;DHT22;10370;53.102;18.034;2023-02-28T20:17:05;-2.60;99.90
20422;DHT22;10370;53.102;18.034;2023-02-28T20:22:51;-2.60;99.90
20422;DHT22;10370;53.102;18.034;2023-02-28T20:28:27;-2.70;99.90
20422;DHT22;10370;53.102;18.034;2023-02-28T20:33:51;-2.80;99.90
20422;DHT22;10370;53.102;18.034;2023-02-28T20:39:17;-3.00;99.90
20422;DHT22;10370;53.102;18.034;2023-02-28T20:44:44;-3.00;99.90
20422;DHT22;10370;53.102;18.034;2023-02-28T20:50:08;-3.00;99.90
20422;DHT22;10370;53.102;18.034;2023-02-28T20:55:34;-3.00;99.90
20422;DHT22;10370;53.102;18.034;2023-02-28T21:06:29;-3.20;99.90
20422;DHT22;10370;53.102;18.034;2023-02-28T21:11:52;-3.30;99.90
20422;DHT22;10370;53.102;18.034;2023-02-28T21:17:15;-3.40;99.90
20422;DHT22;10370;53.102;18.034;2023-02-28T21:22:45;-3.40;99.90
20422;DHT22;10370;53.102;18.034;2023-02-28T21:28:08;-3.50;99.90
20422;DHT22;10370;53.102;18.034;2023-02-28T21:33:48;-3.50;99.90
20422;DHT22;10370;53.102;18.034;2023-02-28T21:39:22;-3.50;99.90
20422;DHT22;10370;53.102;18.034;2023-02-28T21:44:49;-3.60;99.90
20422;DHT22;10370;53.102;18.034;2023-02-28T21:50:19;-3.70;99.90
20422;DHT22;10370;53.102;18.034;2023-02-28T21:55:44;-3.80;99.90
20422;DHT22;10370;53.102;18.034;2023-02-28T22:01:12;-3.90;99.90
20422;DHT22;10370;53.102;18.034;2023-02-28T22:06:40;-3.80;99.90
20422;DHT22;10370;53.102;18.034;2023-02-28T22:12:18;-3.90;99.90
20422;DHT22;10370;53.102;18.034;2023-02-28T22:18:02;-3.90;99.90
20422;DHT22;10370;53.102;18.034;2023-02-28T22:23:27;-3.90;99.90
20422;DHT22;10370;53.102;18.034;2023-02-28T22:28:59;-3.90;99.90
20422;DHT22;10370;53.102;18.034;2023-02-28T22:34:37;-3.90;99.90
20422;DHT22;10370;53.102;18.034;2023-02-28T22:40:12;-3.90;99.90
20422;DHT22;10370;53.102;18.034;2023-02-28T22:45:37;-4.00;99.90
20422;DHT22;10370;53.102;18.034;2023-02-28T22:51:07;-4.00;99.90
20422;DHT22;10370;53.102;18.034;2023-02-28T22:56:44;-4.20;99.90
20422;DHT22;10370;53.102;18.034;2023-02-28T23:02:12;-4.20;99.90
20422;DHT22;10370;53.102;18.034;2023-02-28T23:08:07;-4.30;99.90
20422;DHT22;10370;53.102;18.034;2023-02-28T23:14:00;-4.20;99.90
20422;DHT22;10370;53.102;18.034;2023-02-28T23:25:34;-4.30;99.90
20422;DHT22;10370;53.102;18.034;2023-02-28T23:31:02;-4.20;99.90
20422;DHT22;10370;53.102;18.034;2023-02-28T23:36:42;-4.30;99.90
20422;DHT22;10370;53.102;18.034;2023-02-28T23:42:10;-4.40;99.90
20422;DHT22;10370;53.102;18.034;2023-02-28T23:47:34;-4.40;99.90
20422;DHT22;10370;53.102;18.034;2023-02-28T23:53:04;-4.40;99.90
20422;DHT22;10370;53.102;18.034;2023-02-28T23:58:31;-4.40;99.90
